sensor_id;sensor_type;location;lat;lon;timestamp;pressure;altitude;pressure_sealevel;temperature;humidity
69836;BME280;57132;51.972;4.450;2023-02-18T00:00:58;102191.19;;;8.11;100.00
69836;BME280;57132;51.972;4.450;2023-02-18T00:03:26;102183.41;;;8.06;100.00
69836;BME280;57132;51.972;4.450;2023-02-18T00:05:51;102188.69;;;8.08;100.00
69836;BME280;57132;51.972;4.450;2023-02-18T00:08:17;102190.63;;;8.03;100.00
69836;BME280;57132;51.972;4.450;2023-02-18T00:10:42;102184.53;;;8.01;100.00
69836;BME280;57132;51.972;4.450;2023-02-18T00:13:08;102179.25;;;7.99;100.00
69836;BME280;57132;51.972;4.450;2023-02-18T00:15:35;102176.56;;;7.99;100.00
69836;BME280;57132;51.972;4.450;2023-02-18T00:18:00;102166.94;;;7.97;100.00
69836;BME280;57132;51.972;4.450;2023-02-18T00:20:26;102157.22;;;7.96;100.00
69836;BME280;57132;51.972;4.450;2023-02-18T00:22:51;102150.16;;;7.95;100.00
69836;BME280;57132;51.972;4.450;2023-02-18T00:25:16;102155.50;;;7.95;100.00
69836;BME280;57132;51.972;4.450;2023-02-18T00:27:42;102156.44;;;7.94;100.00
69836;BME280;57132;51.972;4.450;2023-02-18T00:30:07;102160.81;;;7.95;100.00
69836;BME280;57132;51.972;4.450;2023-02-18T00:32:35;102158.13;;;7.96;100.00
69836;BME280;57132;51.972;4.450;2023-02-18T00:35:01;102157.19;;;7.97;100.00
69836;BME280;57132;51.972;4.450;2023-02-18T00:37:27;102156.31;;;7.97;100.00
69836;BME280;57132;51.972;4.450;2023-02-18T00:39:52;102152.72;;;7.98;100.00
69836;BME280;57132;51.972;4.450;2023-02-18T00:42:18;102148.25;;;7.98;100.00
69836;BME280;57132;51.972;4.450;2023-02-18T00:44:43;102142.88;;;8.00;100.00
69836;BME280;57132;51.972;4.450;2023-02-18T00:47:09;102152.53;;;8.02;100.00
69836;BME280;57132;51.972;4.450;2023-02-18T00:49:34;102151.59;;;8.03;100.00
69836;BME280;57132;51.972;4.450;2023-02-18T00:52:00;102135.66;;;8.03;100.00
69836;BME280;57132;51.972;4.450;2023-02-18T00:54:25;102139.00;;;8.08;100.00
69836;BME280;57132;51.972;4.450;2023-02-18T00:56:50;102133.75;;;8.07;100.00
69836;BME280;57132;51.972;4.450;2023-02-18T00:59:16;102139.00;;;8.08;100.00
69836;BME280;57132;51.972;4.450;2023-02-18T01:01:41;102130.03;;;8.11;100.00
69836;BME280;57132;51.972;4.450;2023-02-18T01:04:07;102130.00;;;8.12;100.00
69836;BME280;57132;51.972;4.450;2023-02-18T01:06:32;102128.19;;;8.13;100.00
69836;BME280;57132;51.972;4.450;2023-02-18T01:08:58;102124.66;;;8.12;100.00
69836;BME280;57132;51.972;4.450;2023-02-18T01:11:23;102125.47;;;8.14;100.00
69836;BME280;57132;51.972;4.450;2023-02-18T01:13:49;102128.13;;;8.14;100.00
69836;BME280;57132;51.972;4.450;2023-02-18T01:16:15;102129.72;;;8.19;100.00
69836;BME280;57132;51.972;4.450;2023-02-18T01:18:41;102131.53;;;8.18;100.00
69836;BME280;57132;51.972;4.450;2023-02-18T01:21:07;102120.03;;;8.18;100.00
69836;BME280;57132;51.972;4.450;2023-02-18T01:23:34;102131.59;;;8.17;100.00
69836;BME280;57132;51.972;4.450;2023-02-18T01:25:59;102115.69;;;8.15;100.00
69836;BME280;57132;51.972;4.450;2023-02-18T01:28:25;102121.84;;;8.16;100.00
69836;BME280;57132;51.972;4.450;2023-02-18T01:30:52;102107.66;;;8.17;100.00
69836;BME280;57132;51.972;4.450;2023-02-18T01:33:18;102113.88;;;8.16;100.00
69836;BME280;57132;51.972;4.450;2023-02-18T01:35:44;102117.44;;;8.16;100.00
69836;BME280;57132;51.972;4.450;2023-02-18T01:38:09;102110.34;;;8.15;100.00
69836;BME280;57132;51.972;4.450;2023-02-18T01:40:35;102104.06;;;8.18;100.00
69836;BME280;57132;51.972;4.450;2023-02-18T01:43:01;102107.66;;;8.17;100.00
69836;BME280;57132;51.972;4.450;2023-02-18T01:45:39;102096.16;;;8.16;100.00
69836;BME280;57132;51.972;4.450;2023-02-18T01:48:10;102097.06;;;8.15;100.00
69836;BME280;57132;51.972;4.450;2023-02-18T01:50:48;102105.91;;;8.16;100.00
69836;BME280;57132;51.972;4.450;2023-02-18T01:53:19;102090.88;;;8.14;100.00
69836;BME280;57132;51.972;4.450;2023-02-18T01:55:46;102097.06;;;8.15;100.00
69836;BME280;57132;51.972;4.450;2023-02-18T01:58:13;102097.13;;;8.13;100.00
69836;BME280;57132;51.972;4.450;2023-02-18T02:00:39;102090.97;;;8.13;100.00
69836;BME280;57132;51.972;4.450;2023-02-18T02:03:05;102081.19;;;8.13;100.00
69836;BME280;57132;51.972;4.450;2023-02-18T02:05:32;102076.81;;;8.12;100.00
69836;BME280;57132;51.972;4.450;2023-02-18T02:07:59;102076.81;;;8.12;100.00
69836;BME280;57132;51.972;4.450;2023-02-18T02:10:38;102069.69;;;8.13;100.00
69836;BME280;57132;51.972;4.450;2023-02-18T02:13:16;102063.44;;;8.14;100.00
69836;BME280;57132;51.972;4.450;2023-02-18T02:24:11;102055.22;;;8.20;100.00
69836;BME280;57132;51.972;4.450;2023-02-18T02:27:23;102044.41;;;8.23;100.00
69836;BME280;57132;51.972;4.450;2023-02-18T02:35:48;102022.44;;;8.20;100.00
69836;BME280;57132;51.972;4.450;2023-02-18T02:38:30;102019.81;;;8.18;100.00
69836;BME280;57132;51.972;4.450;2023-02-18T02:41:25;102005.78;;;8.14;100.00
69836;BME280;57132;51.972;4.450;2023-02-18T02:46:43;101997.13;;;8.09;100.00
69836;BME280;57132;51.972;4.450;2023-02-18T02:49:32;101981.19;;;8.09;100.00
69836;BME280;57132;51.972;4.450;2023-02-18T02:52:23;101984.63;;;8.11;100.00
69836;BME280;57132;51.972;4.450;2023-02-18T02:54:51;101984.59;;;8.13;100.00
69836;BME280;57132;51.972;4.450;2023-02-18T02:59:44;101976.41;;;8.18;100.00
69836;BME280;57132;51.972;4.450;2023-02-18T03:05:31;101966.41;;;8.23;100.00
69836;BME280;57132;51.972;4.450;2023-02-18T03:11:09;101963.56;;;8.27;100.00
69836;BME280;57132;51.972;4.450;2023-02-18T03:14:17;101978.63;;;8.28;100.00
69836;BME280;57132;51.972;4.450;2023-02-18T03:17:00;101960.66;;;8.33;100.00
69836;BME280;57132;51.972;4.450;2023-02-18T03:19:37;101964.13;;;8.35;100.00
69836;BME280;57132;51.972;4.450;2023-02-18T03:24:46;101958.00;;;8.33;100.00
69836;BME280;57132;51.972;4.450;2023-02-18T03:27:16;101947.44;;;8.32;100.00
69836;BME280;57132;51.972;4.450;2023-02-18T03:29:45;101934.13;;;8.32;100.00
69836;BME280;57132;51.972;4.450;2023-02-18T03:32:15;101920.09;;;8.28;100.00
69836;BME280;57132;51.972;4.450;2023-02-18T03:34:48;101914.03;;;8.25;100.00
69836;BME280;57132;51.972;4.450;2023-02-18T03:37:16;101918.50;;;8.24;100.00
69836;BME280;57132;51.972;4.450;2023-02-18T03:39:45;101918.50;;;8.24;100.00
69836;BME280;57132;51.972;4.450;2023-02-18T03:42:13;101914.97;;;8.24;100.00
69836;BME280;57132;51.972;4.450;2023-02-18T03:44:39;101914.91;;;8.25;100.00
69836;BME280;57132;51.972;4.450;2023-02-18T03:47:05;101920.13;;;8.27;100.00
69836;BME280;57132;51.972;4.450;2023-02-18T03:49:30;101901.59;;;8.25;100.00
69836;BME280;57132;51.972;4.450;2023-02-18T03:51:55;101893.63;;;8.25;100.00
69836;BME280;57132;51.972;4.450;2023-02-18T03:54:21;101893.63;;;8.25;100.00
69836;BME280;57132;51.972;4.450;2023-02-18T03:56:46;101893.53;;;8.27;100.00
69836;BME280;57132;51.972;4.450;2023-02-18T03:59:12;101896.28;;;8.25;100.00
69836;BME280;57132;51.972;4.450;2023-02-18T04:01:37;101889.03;;;8.29;100.00
69836;BME280;57132;51.972;4.450;2023-02-18T04:04:03;101900.41;;;8.32;100.00
69836;BME280;57132;51.972;4.450;2023-02-18T04:06:29;101898.59;;;8.33;100.00
69836;BME280;57132;51.972;4.450;2023-02-18T04:08:54;101901.13;;;8.36;100.00
69836;BME280;57132;51.972;4.450;2023-02-18T04:11:19;101892.25;;;8.37;100.00
69836;BME280;57132;51.972;4.450;2023-02-18T04:13:45;101890.38;;;8.39;100.00
69836;BME280;57132;51.972;4.450;2023-02-18T04:16:11;101896.50;;;8.41;100.00
69836;BME280;57132;51.972;4.450;2023-02-18T04:18:36;101916.84;;;8.42;100.00
69836;BME280;57132;51.972;4.450;2023-02-18T04:21:02;101891.97;;;8.43;100.00
69836;BME280;57132;51.972;4.450;2023-02-18T04:23:30;101899.03;;;8.44;100.00
69836;BME280;57132;51.972;4.450;2023-02-18T04:25:55;101895.44;;;8.45;100.00
69836;BME280;57132;51.972;4.450;2023-02-18T04:28:21;101891.91;;;8.45;100.00
69836;BME280;57132;51.972;4.450;2023-02-18T04:30:46;101892.84;;;8.44;100.00
69836;BME280;57132;51.972;4.450;2023-02-18T04:33:12;101888.31;;;8.46;100.00
69836;BME280;57132;51.972;4.450;2023-02-18T04:35:38;101886.50;;;8.46;100.00
69836;BME280;57132;51.972;4.450;2023-02-18T04:38:08;101871.25;;;8.50;100.00
69836;BME280;57132;51.972;4.450;2023-02-18T04:40:34;101885.38;;;8.52;100.00
69836;BME280;57132;51.972;4.450;2023-02-18T04:43:00;101865.91;;;8.51;100.00
69836;BME280;57132;51.972;4.450;2023-02-18T04:45:26;101859.50;;;8.55;100.00
69836;BME280;57132;51.972;4.450;2023-02-18T04:47:52;101843.53;;;8.55;100.00
69836;BME280;57132;51.972;4.450;2023-02-18T04:50:18;101834.75;;;8.53;100.00
69836;BME280;57132;51.972;4.450;2023-02-18T04:52:44;101834.81;;;8.52;100.00
69836;BME280;57132;51.972;4.450;2023-02-18T04:55:09;101836.47;;;8.54;100.00
69836;BME280;57132;51.972;4.450;2023-02-18T04:57:35;101839.94;;;8.56;100.00
69836;BME280;57132;51.972;4.450;2023-02-18T05:00:00;101851.44;;;8.57;100.00
69836;BME280;57132;51.972;4.450;2023-02-18T05:02:26;101833.56;;;8.59;100.00
69836;BME280;57132;51.972;4.450;2023-02-18T05:04:52;101844.16;;;8.60;100.00
69836;BME280;57132;51.972;4.450;2023-02-18T05:07:17;101844.31;;;8.57;100.00
69836;BME280;57132;51.972;4.450;2023-02-18T05:09:45;101844.09;;;8.62;100.00
69836;BME280;57132;51.972;4.450;2023-02-18T05:12:12;101835.25;;;8.61;100.00
69836;BME280;57132;51.972;4.450;2023-02-18T05:14:38;101840.47;;;8.63;100.00
69836;BME280;57132;51.972;4.450;2023-02-18T05:17:03;101852.94;;;8.62;100.00
69836;BME280;57132;51.972;4.450;2023-02-18T05:19:28;101831.44;;;8.67;100.00
69836;BME280;57132;51.972;4.450;2023-02-18T05:21:54;101841.19;;;8.67;100.00
69836;BME280;57132;51.972;4.450;2023-02-18T05:24:19;101824.50;;;8.63;100.00
69836;BME280;57132;51.972;4.450;2023-02-18T05:26:44;101829.06;;;8.61;100.00
69836;BME280;57132;51.972;4.450;2023-02-18T05:29:10;101821.06;;;8.61;100.00
69836;BME280;57132;51.972;4.450;2023-02-18T05:31:38;101836.97;;;8.62;100.00
69836;BME280;57132;51.972;4.450;2023-02-18T05:34:04;101808.84;;;8.57;100.00
69836;BME280;57132;51.972;4.450;2023-02-18T05:36:29;101812.47;;;8.56;100.00
69836;BME280;57132;51.972;4.450;2023-02-18T05:38:54;101819.63;;;8.54;100.00
69836;BME280;57132;51.972;4.450;2023-02-18T05:41:26;101821.44;;;8.53;100.00
69836;BME280;57132;51.972;4.450;2023-02-18T05:43:51;101818.06;;;8.50;100.00
69836;BME280;57132;51.972;4.450;2023-02-18T05:46:35;101816.34;;;8.49;100.00
69836;BME280;57132;51.972;4.450;2023-02-18T05:49:00;101805.06;;;8.44;100.00
69836;BME280;57132;51.972;4.450;2023-02-18T05:51:26;101805.81;;;8.46;100.00
69836;BME280;57132;51.972;4.450;2023-02-18T05:53:52;101795.31;;;8.43;100.00
69836;BME280;57132;51.972;4.450;2023-02-18T05:56:17;101795.47;;;8.40;100.00
69836;BME280;57132;51.972;4.450;2023-02-18T05:58:42;101798.16;;;8.40;100.00
69836;BME280;57132;51.972;4.450;2023-02-18T06:01:08;101803.38;;;8.41;100.00
69836;BME280;57132;51.972;4.450;2023-02-18T06:03:33;101798.91;;;8.42;100.00
69836;BME280;57132;51.972;4.450;2023-02-18T06:05:59;101798.06;;;8.41;100.00
69836;BME280;57132;51.972;4.450;2023-02-18T06:08:24;101780.38;;;8.40;100.00
69836;BME280;57132;51.972;4.450;2023-02-18T06:10:50;101789.13;;;8.42;100.00
69836;BME280;57132;51.972;4.450;2023-02-18T06:13:15;101798.06;;;8.41;100.00
69836;BME280;57132;51.972;4.450;2023-02-18T06:15:41;101797.97;;;8.43;100.00
69836;BME280;57132;51.972;4.450;2023-02-18T06:18:06;101793.38;;;8.46;100.00
69836;BME280;57132;51.972;4.450;2023-02-18T06:20:32;101783.69;;;8.45;100.00
69836;BME280;57132;51.972;4.450;2023-02-18T06:22:57;101787.13;;;8.47;100.00
69836;BME280;57132;51.972;4.450;2023-02-18T06:25:25;101797.63;;;8.50;100.00
69836;BME280;57132;51.972;4.450;2023-02-18T06:27:50;101780.78;;;8.50;100.00
69836;BME280;57132;51.972;4.450;2023-02-18T06:30:16;101808.25;;;8.50;100.00
69836;BME280;57132;51.972;4.450;2023-02-18T06:32:41;101786.84;;;8.53;100.00
69836;BME280;57132;51.972;4.450;2023-02-18T06:35:07;101792.88;;;8.57;100.00
69836;BME280;57132;51.972;4.450;2023-02-18T06:37:32;101804.38;;;8.57;100.00
69836;BME280;57132;51.972;4.450;2023-02-18T06:39:57;101798.97;;;8.59;100.00
69836;BME280;57132;51.972;4.450;2023-02-18T06:42:23;101777.63;;;8.60;100.00
69836;BME280;57132;51.972;4.450;2023-02-18T06:44:48;101780.34;;;8.59;100.00
69836;BME280;57132;51.972;4.450;2023-02-18T06:47:13;101782.25;;;8.57;100.00
69836;BME280;57132;51.972;4.450;2023-02-18T06:49:39;101784.91;;;8.57;100.00
69836;BME280;57132;51.972;4.450;2023-02-18T06:52:04;101788.50;;;8.56;100.00
69836;BME280;57132;51.972;4.450;2023-02-18T06:54:30;101774.34;;;8.55;100.00
69836;BME280;57132;51.972;4.450;2023-02-18T06:56:55;101783.25;;;8.54;100.00
69836;BME280;57132;51.972;4.450;2023-02-18T06:59:21;101777.19;;;8.51;100.00
69836;BME280;57132;51.972;4.450;2023-02-18T07:01:46;101775.44;;;8.51;100.00
69836;BME280;57132;51.972;4.450;2023-02-18T07:04:12;101779.84;;;8.51;100.00
69836;BME280;57132;51.972;4.450;2023-02-18T07:06:37;101784.31;;;8.50;100.00
69836;BME280;57132;51.972;4.450;2023-02-18T07:09:04;101800.22;;;8.52;100.00
69836;BME280;57132;51.972;4.450;2023-02-18T07:11:29;101767.28;;;8.54;100.00
69836;BME280;57132;51.972;4.450;2023-02-18T07:13:55;101781.44;;;8.55;100.00
69836;BME280;57132;51.972;4.450;2023-02-18T07:16:20;101753.06;;;8.55;100.00
69836;BME280;57132;51.972;4.450;2023-02-18T07:18:45;101770.66;;;8.58;100.00
69836;BME280;57132;51.972;4.450;2023-02-18T07:21:11;101765.19;;;8.61;100.00
69836;BME280;57132;51.972;4.450;2023-02-18T07:23:36;101759.94;;;8.59;100.00
69836;BME280;57132;51.972;4.450;2023-02-18T07:26:11;101767.84;;;8.61;100.00
69836;BME280;57132;51.972;4.450;2023-02-18T07:28:37;101756.34;;;8.60;100.00
69836;BME280;57132;51.972;4.450;2023-02-18T07:31:03;101759.00;;;8.60;100.00
69836;BME280;57132;51.972;4.450;2023-02-18T07:33:28;101768.78;;;8.60;100.00
69836;BME280;57132;51.972;4.450;2023-02-18T07:35:56;101763.47;;;8.60;100.00
69836;BME280;57132;51.972;4.450;2023-02-18T07:38:21;101776.84;;;8.58;100.00
69836;BME280;57132;51.972;4.450;2023-02-18T07:40:47;101773.31;;;8.58;100.00
69836;BME280;57132;51.972;4.450;2023-02-18T07:43:13;101761.72;;;8.59;100.00
69836;BME280;57132;51.972;4.450;2023-02-18T07:45:38;101768.72;;;8.61;100.00
69836;BME280;57132;51.972;4.450;2023-02-18T07:48:04;101753.53;;;8.64;100.00
69836;BME280;57132;51.972;4.450;2023-02-18T07:50:29;101778.41;;;8.62;100.00
69836;BME280;57132;51.972;4.450;2023-02-18T07:52:59;101787.19;;;8.65;100.00
69836;BME280;57132;51.972;4.450;2023-02-18T07:55:25;101775.75;;;8.62;100.00
69836;BME280;57132;51.972;4.450;2023-02-18T07:58:10;101777.63;;;8.60;100.00
69836;BME280;57132;51.972;4.450;2023-02-18T08:00:36;101770.66;;;8.58;100.00
69836;BME280;57132;51.972;4.450;2023-02-18T08:03:02;101775.13;;;8.57;100.00
69836;BME280;57132;51.972;4.450;2023-02-18T08:05:27;101799.06;;;8.57;100.00
69836;BME280;57132;51.972;4.450;2023-02-18T08:07:53;101783.09;;;8.57;100.00
69836;BME280;57132;51.972;4.450;2023-02-18T08:10:21;101769.72;;;8.59;100.00
69836;BME280;57132;51.972;4.450;2023-02-18T08:12:46;101784.69;;;8.61;100.00
69836;BME280;57132;51.972;4.450;2023-02-18T08:15:12;101776.84;;;8.58;100.00
69836;BME280;57132;51.972;4.450;2023-02-18T08:17:38;101779.44;;;8.60;100.00
69836;BME280;57132;51.972;4.450;2023-02-18T08:20:04;101785.75;;;8.57;100.00
69836;BME280;57132;51.972;4.450;2023-02-18T08:22:29;101785.84;;;8.56;100.00
69836;BME280;57132;51.972;4.450;2023-02-18T08:24:55;101792.16;;;8.53;100.00
69836;BME280;57132;51.972;4.450;2023-02-18T08:27:21;101793.09;;;8.52;100.00
69836;BME280;57132;51.972;4.450;2023-02-18T08:29:46;101790.59;;;8.49;100.00
69836;BME280;57132;51.972;4.450;2023-02-18T08:32:12;101790.44;;;8.52;100.00
69836;BME280;57132;51.972;4.450;2023-02-18T08:34:37;101791.22;;;8.54;100.00
69836;BME280;57132;51.972;4.450;2023-02-18T08:37:03;101777.69;;;8.59;100.00
69836;BME280;57132;51.972;4.450;2023-02-18T08:39:35;101782.81;;;8.64;100.00
69836;BME280;57132;51.972;4.450;2023-02-18T08:42:01;101785.25;;;8.68;100.00
69836;BME280;57132;51.972;4.450;2023-02-18T08:44:27;101780.72;;;8.70;100.00
69836;BME280;57132;51.972;4.450;2023-02-18T08:46:52;101785.03;;;8.73;100.00
69836;BME280;57132;51.972;4.450;2023-02-18T08:49:18;101792.88;;;8.76;100.00
69836;BME280;57132;51.972;4.450;2023-02-18T08:51:46;101789.19;;;8.78;100.00
69836;BME280;57132;51.972;4.450;2023-02-18T08:54:14;101791.94;;;8.77;100.00
69836;BME280;57132;51.972;4.450;2023-02-18T08:56:39;101796.91;;;8.84;100.00
69836;BME280;57132;51.972;4.450;2023-02-18T08:59:05;101810.28;;;8.83;100.00
69836;BME280;57132;51.972;4.450;2023-02-18T09:01:30;101809.41;;;8.82;100.00
69836;BME280;57132;51.972;4.450;2023-02-18T09:03:57;101817.38;;;8.82;100.00
69836;BME280;57132;51.972;4.450;2023-02-18T09:06:23;101819.19;;;8.82;100.00
69836;BME280;57132;51.972;4.450;2023-02-18T09:08:48;101826.19;;;8.84;100.00
69836;BME280;57132;51.972;4.450;2023-02-18T09:11:20;101816.38;;;8.85;100.00
69836;BME280;57132;51.972;4.450;2023-02-18T09:13:46;101817.19;;;8.87;100.00
69836;BME280;57132;51.972;4.450;2023-02-18T09:16:16;101825.94;;;8.89;100.00
69836;BME280;57132;51.972;4.450;2023-02-18T09:18:43;101838.31;;;8.90;100.00
69836;BME280;57132;51.972;4.450;2023-02-18T09:21:11;101843.38;;;8.96;100.00
69836;BME280;57132;51.972;4.450;2023-02-18T09:23:37;101824.66;;;8.98;100.00
69836;BME280;57132;51.972;4.450;2023-02-18T09:26:05;101823.78;;;8.97;100.00
69836;BME280;57132;51.972;4.450;2023-02-18T09:28:31;101840.41;;;9.02;100.00
69836;BME280;57132;51.972;4.450;2023-02-18T09:30:57;101837.72;;;9.02;100.00
69836;BME280;57132;51.972;4.450;2023-02-18T09:33:24;101846.75;;;9.00;100.00
69836;BME280;57132;51.972;4.450;2023-02-18T09:35:49;101842.41;;;8.97;100.00
69836;BME280;57132;51.972;4.450;2023-02-18T09:38:16;101838.09;;;8.95;100.00
69836;BME280;57132;51.972;4.450;2023-02-18T09:40:49;101827.44;;;8.95;100.00
69836;BME280;57132;51.972;4.450;2023-02-18T09:45:52;101849.91;;;9.08;100.00
69836;BME280;57132;51.972;4.450;2023-02-18T09:48:17;101864.94;;;9.09;100.00
69836;BME280;57132;51.972;4.450;2023-02-18T09:50:46;101867.53;;;9.10;100.00
69836;BME280;57132;51.972;4.450;2023-02-18T09:53:15;101837.44;;;9.08;100.00
69836;BME280;57132;51.972;4.450;2023-02-18T09:55:41;101864.22;;;9.05;100.00
69836;BME280;57132;51.972;4.450;2023-02-18T09:58:18;101843.84;;;9.04;100.00
69836;BME280;57132;51.972;4.450;2023-02-18T10:00:46;101852.72;;;9.05;100.00
69836;BME280;57132;51.972;4.450;2023-02-18T10:03:17;101852.47;;;9.09;100.00
69836;BME280;57132;51.972;4.450;2023-02-18T10:05:59;101862.91;;;9.14;100.00
69836;BME280;57132;51.972;4.450;2023-02-18T10:08:35;101860.03;;;9.19;100.00
69836;BME280;57132;51.972;4.450;2023-02-18T10:11:03;101861.75;;;9.20;100.00
69836;BME280;57132;51.972;4.450;2023-02-18T10:13:31;101863.56;;;9.19;100.00
69836;BME280;57132;51.972;4.450;2023-02-18T10:15:58;101873.28;;;9.20;100.00
69836;BME280;57132;51.972;4.450;2023-02-18T10:18:32;101862.31;;;9.26;100.00
69836;BME280;57132;51.972;4.450;2023-02-18T10:21:05;101857.06;;;9.25;100.00
69836;BME280;57132;51.972;4.450;2023-02-18T10:23:33;101865.06;;;9.25;100.00
69836;BME280;57132;51.972;4.450;2023-02-18T10:26:04;101872.97;;;9.26;100.00
69836;BME280;57132;51.972;4.450;2023-02-18T10:28:31;101885.50;;;9.24;100.00
69836;BME280;57132;51.972;4.450;2023-02-18T10:31:04;101895.22;;;9.25;100.00
69836;BME280;57132;51.972;4.450;2023-02-18T10:33:46;101890.94;;;9.23;100.00
69836;BME280;57132;51.972;4.450;2023-02-18T10:36:23;101888.31;;;9.21;100.00
69836;BME280;57132;51.972;4.450;2023-02-18T10:39:18;101884.72;;;9.22;100.00
69836;BME280;57132;51.972;4.450;2023-02-18T10:42:05;101891.84;;;9.22;100.00
69836;BME280;57132;51.972;4.450;2023-02-18T10:45:25;101906.91;;;9.23;100.00
69836;BME280;57132;51.972;4.450;2023-02-18T10:48:04;101891.63;;;9.26;100.00
69836;BME280;57132;51.972;4.450;2023-02-18T10:50:41;101891.25;;;9.34;100.00
69836;BME280;57132;51.972;4.450;2023-02-18T10:55:54;101890.59;;;9.65;100.00
69836;BME280;57132;51.972;4.450;2023-02-18T10:58:34;101896.16;;;9.78;100.00
69836;BME280;57132;51.972;4.450;2023-02-18T11:01:02;101892.59;;;9.79;100.00
69836;BME280;57132;51.972;4.450;2023-02-18T11:04:12;101887.16;;;9.80;100.00
69836;BME280;57132;51.972;4.450;2023-02-18T11:06:41;101896.00;;;9.81;100.00
69836;BME280;57132;51.972;4.450;2023-02-18T11:12:18;101880.34;;;9.75;100.00
69836;BME280;57132;51.972;4.450;2023-02-18T11:14:47;101888.16;;;9.78;100.00
69836;BME280;57132;51.972;4.450;2023-02-18T11:17:19;101883.63;;;9.80;100.00
69836;BME280;57132;51.972;4.450;2023-02-18T11:19:56;101887.09;;;9.82;100.00
69836;BME280;57132;51.972;4.450;2023-02-18T11:22:29;101893.91;;;9.88;100.00
69836;BME280;57132;51.972;4.450;2023-02-18T11:24:59;101887.38;;;9.93;100.00
69836;BME280;57132;51.972;4.450;2023-02-18T11:27:41;101889.66;;;10.01;100.00
69836;BME280;57132;51.972;4.450;2023-02-18T11:30:39;101880.63;;;10.21;100.00
69836;BME280;57132;51.972;4.450;2023-02-18T11:33:19;101894.91;;;10.37;100.00
69836;BME280;57132;51.972;4.450;2023-02-18T11:35:53;101896.47;;;10.41;100.00
69836;BME280;57132;51.972;4.450;2023-02-18T11:38:33;101900.59;;;10.31;100.00
69836;BME280;57132;51.972;4.450;2023-02-18T11:41:06;101899.03;;;10.27;100.00
69836;BME280;57132;51.972;4.450;2023-02-18T11:43:32;101891.13;;;10.24;100.00
69836;BME280;57132;51.972;4.450;2023-02-18T11:48:37;101890.84;;;10.13;100.00
69836;BME280;57132;51.972;4.450;2023-02-18T11:51:03;101888.25;;;10.11;100.00
69836;BME280;57132;51.972;4.450;2023-02-18T11:53:32;101877.88;;;10.05;100.00
69836;BME280;57132;51.972;4.450;2023-02-18T11:56:01;101881.34;;;10.07;100.00
69836;BME280;57132;51.972;4.450;2023-02-18T11:58:35;101878.34;;;10.13;100.00
69836;BME280;57132;51.972;4.450;2023-02-18T12:01:06;101873.66;;;10.18;100.00
69836;BME280;57132;51.972;4.450;2023-02-18T12:04:02;101877.59;;;10.28;100.00
69836;BME280;57132;51.972;4.450;2023-02-18T12:06:34;101882.84;;;10.30;100.00
69836;BME280;57132;51.972;4.450;2023-02-18T12:09:13;101880.94;;;10.32;100.00
69836;BME280;57132;51.972;4.450;2023-02-18T12:11:43;101868.84;;;10.42;100.00
69836;BME280;57132;51.972;4.450;2023-02-18T12:14:22;101873.97;;;10.63;100.00
69836;BME280;57132;51.972;4.450;2023-02-18T12:27:25;101876.53;;;11.59;100.00
69836;BME280;57132;51.972;4.450;2023-02-18T12:30:00;101865.31;;;11.68;100.00
69836;BME280;57132;51.972;4.450;2023-02-18T12:32:42;101863.84;;;11.63;100.00
69836;BME280;57132;51.972;4.450;2023-02-18T12:43:51;101876.03;;;11.52;100.00
69836;BME280;57132;51.972;4.450;2023-02-18T12:52:01;101865.44;;;11.35;100.00
69836;BME280;57132;51.972;4.450;2023-02-18T13:02:42;101879.06;;;11.46;100.00
69836;BME280;57132;51.972;4.450;2023-02-18T13:11:01;101881.72;;;11.46;100.00
69836;BME280;57132;51.972;4.450;2023-02-18T13:13:33;101883.78;;;11.57;100.00
69836;BME280;57132;51.972;4.450;2023-02-18T13:16:09;101876.88;;;11.69;100.00
69836;BME280;57132;51.972;4.450;2023-02-18T13:18:44;101881.94;;;11.73;100.00
69836;BME280;57132;51.972;4.450;2023-02-18T13:21:13;101881.66;;;11.78;100.00
69836;BME280;57132;51.972;4.450;2023-02-18T13:23:49;101888.88;;;11.62;100.00
69836;BME280;57132;51.972;4.450;2023-02-18T13:26:16;101872.75;;;11.47;100.00
69836;BME280;57132;51.972;4.450;2023-02-18T13:34:36;101890.88;;;11.42;100.00
69836;BME280;57132;51.972;4.450;2023-02-18T13:37:19;101875.19;;;11.36;100.00
69836;BME280;57132;51.972;4.450;2023-02-18T13:39:49;101882.97;;;11.41;100.00
69836;BME280;57132;51.972;4.450;2023-02-18T13:52:41;101875.84;;;12.01;100.00
69836;BME280;57132;51.972;4.450;2023-02-18T13:55:17;101874.50;;;12.09;100.00
69836;BME280;57132;51.972;4.450;2023-02-18T13:57:46;101865.44;;;12.25;100.00
69836;BME280;57132;51.972;4.450;2023-02-18T14:00:24;101874.63;;;12.21;100.00
69836;BME280;57132;51.972;4.450;2023-02-18T14:02:59;101888.09;;;12.34;100.00
69836;BME280;57132;51.972;4.450;2023-02-18T14:05:37;101890.78;;;12.20;100.00
69836;BME280;57132;51.972;4.450;2023-02-18T14:08:13;101884.59;;;11.89;100.00
69836;BME280;57132;51.972;4.450;2023-02-18T14:10:40;101884.22;;;11.79;100.00
69836;BME280;57132;51.972;4.450;2023-02-18T14:13:24;101889.44;;;11.67;100.00
69836;BME280;57132;51.972;4.450;2023-02-18T14:16:02;101888.28;;;11.56;100.00
69836;BME280;57132;51.972;4.450;2023-02-18T14:50:20;101892.94;;;10.74;100.00
69836;BME280;57132;51.972;4.450;2023-02-18T14:52:56;101889.59;;;10.70;100.00
69836;BME280;57132;51.972;4.450;2023-02-18T14:55:27;101897.91;;;10.64;100.00
69836;BME280;57132;51.972;4.450;2023-02-18T14:57:58;101888.19;;;10.63;100.00
69836;BME280;57132;51.972;4.450;2023-02-18T15:00:27;101894.72;;;10.57;100.00
69836;BME280;57132;51.972;4.450;2023-02-18T15:02:56;101898.41;;;10.55;100.00
69836;BME280;57132;51.972;4.450;2023-02-18T15:05:24;101901.09;;;10.55;100.00